Terminal Aerodrome Forecast
Issued by NWS

Home | Current Version | Previous Version | Text Only | Print | Product List | Glossary On
Versions: 1 2 3 4 5 6 7 8 9 10 11 12 13 14 15
000
FTUS43 KEAX 221100
TAFSTJ
TAF
KSTJ 221134Z 2212/2312 15011KT 6SM -RADZ OVC008
      TEMPO 2212/2213 5SM -RA BR BKN011
     FM222100 28010KT 3SM -RA BR OVC010
     FM230200 29012KT 6SM BR OVC025=

USA.gov is the U.S. government's official web portal to all federal, state and local government web resources and services.